createdAt,value
2022-09-14T00:01:25.911Z,6.23
2022-09-14T00:04:01.699Z,6.47
2022-09-14T00:06:29.202Z,6.43
2022-09-14T00:08:57.646Z,6.20
2022-09-14T00:11:25.644Z,5.93
2022-09-14T00:13:53.245Z,5.77
2022-09-14T00:16:34.599Z,5.93
2022-09-14T00:19:06.944Z,5.85
2022-09-14T00:21:35.635Z,6.43
2022-09-14T00:24:02.347Z,6.10
2022-09-14T00:26:28.905Z,6.40
2022-09-14T00:28:58.062Z,6.68
2022-09-14T00:31:25.880Z,5.97
2022-09-14T00:33:53.122Z,5.70
2022-09-14T00:36:28.499Z,6.32
2022-09-14T00:39:00.671Z,5.93
2022-09-14T00:41:32.083Z,5.30
2022-09-14T00:44:02.626Z,6.65
2022-09-14T00:46:36.653Z,5.90
2022-09-14T00:49:15.667Z,5.93
2022-09-14T00:51:59.026Z,6.47
2022-09-14T00:54:26.416Z,5.80
2022-09-14T00:56:53.606Z,6.28
2022-09-14T00:59:24.582Z,6.30
2022-09-14T01:01:51.339Z,6.88
2022-09-14T01:04:18.069Z,5.80
2022-09-14T01:07:05.227Z,5.82
2022-09-14T01:09:53.834Z,6.18
2022-09-14T01:12:37.349Z,6.78
2022-09-14T01:15:18.962Z,6.47
2022-09-14T01:18:00.647Z,5.60
2022-09-14T01:20:40.209Z,6.43
2022-09-14T01:23:06.633Z,6.20
2022-09-14T01:26:01.457Z,5.78
2022-09-14T01:28:43.570Z,6.25
2022-09-14T01:31:18.172Z,6.63
2022-09-14T01:33:53.710Z,6.53
2022-09-14T01:36:20.703Z,6.82
2022-09-14T01:38:52.526Z,7.07
2022-09-14T01:41:24.462Z,7.20
2022-09-14T01:44:04.185Z,5.93
2022-09-14T01:46:40.591Z,6.30
2022-09-14T01:49:13.757Z,6.45
2022-09-14T01:51:49.642Z,6.65
2022-09-14T01:54:42.478Z,6.20
2022-09-14T01:57:21.578Z,6.60
2022-09-14T01:59:52.259Z,6.45
2022-09-14T02:02:30.660Z,6.70
2022-09-14T02:05:09.192Z,6.22
2022-09-14T02:07:37.650Z,6.47
2022-09-14T02:10:08.941Z,6.73
2022-09-14T02:12:36.350Z,6.45
2022-09-14T02:15:04.042Z,6.25
2022-09-14T02:17:31.329Z,6.63
2022-09-14T02:20:00.886Z,5.97
2022-09-14T02:22:29.131Z,6.60
2022-09-14T02:24:55.946Z,6.20
2022-09-14T02:27:22.659Z,6.80
2022-09-14T02:29:49.753Z,7.80
2022-09-14T02:32:31.427Z,7.00
2022-09-14T02:35:20.437Z,7.57
2022-09-14T02:38:01.262Z,8.10
2022-09-14T02:40:43.454Z,7.50
2022-09-14T02:43:18.880Z,8.20
2022-09-14T02:45:51.742Z,8.73
2022-09-14T02:48:38.710Z,7.60
2022-09-14T02:51:40.518Z,8.40
2022-09-14T02:54:14.751Z,8.77
2022-09-14T02:56:41.651Z,8.35
2022-09-14T02:59:08.124Z,8.55
2022-09-14T03:01:34.663Z,9.50
2022-09-14T03:04:01.326Z,9.98
2022-09-14T03:06:27.779Z,9.38
2022-09-14T03:08:54.221Z,9.88
2022-09-14T03:11:20.729Z,11.15
2022-09-14T03:13:47.320Z,11.03
2022-09-14T03:16:17.095Z,11.77
2022-09-14T03:18:43.926Z,11.45
2022-09-14T03:21:13.165Z,12.45
2022-09-14T03:23:55.104Z,11.90
2022-09-14T03:26:22.950Z,13.53
2022-09-14T03:28:54.114Z,13.10
2022-09-14T03:31:20.978Z,14.07
2022-09-14T03:33:52.082Z,13.95
2022-09-14T03:36:19.849Z,14.60
2022-09-14T03:38:48.890Z,14.87
2022-09-14T03:41:16.096Z,15.15
2022-09-14T03:43:43.427Z,15.90
2022-09-14T03:46:12.718Z,16.98
2022-09-14T03:48:39.426Z,16.73
2022-09-14T03:51:07.526Z,16.70
2022-09-14T03:53:34.608Z,18.15
2022-09-14T03:56:01.101Z,17.75
2022-09-14T03:58:31.343Z,18.88
2022-09-14T04:01:04.335Z,18.88
2022-09-14T04:03:31.908Z,18.13
2022-09-14T04:05:58.737Z,18.77
2022-09-14T04:08:25.571Z,16.60
2022-09-14T04:10:52.146Z,18.45
2022-09-14T04:13:18.598Z,18.27
2022-09-14T04:15:45.099Z,16.50
2022-09-14T04:18:12.258Z,18.40
2022-09-14T04:20:39.043Z,17.38
2022-09-14T04:23:05.673Z,16.95
2022-09-14T04:25:32.075Z,17.92
2022-09-14T04:28:19.308Z,18.80
2022-09-14T04:30:44.988Z,19.38
2022-09-14T04:33:11.393Z,19.33
2022-09-14T04:35:37.853Z,19.67
2022-09-14T04:38:04.775Z,19.52
2022-09-14T04:40:31.465Z,21.03
2022-09-14T04:42:57.931Z,19.10
2022-09-14T04:45:24.367Z,20.10
2022-09-14T04:47:50.907Z,21.00
2022-09-14T04:50:17.334Z,20.30
2022-09-14T04:52:43.750Z,19.83
2022-09-14T04:55:10.291Z,21.10
2022-09-14T04:57:36.768Z,19.88
2022-09-14T05:00:04.242Z,19.67
2022-09-14T05:02:31.951Z,20.45
2022-09-14T05:04:58.939Z,19.40
2022-09-14T05:07:25.403Z,19.48
2022-09-14T05:09:51.818Z,19.52
2022-09-14T05:12:18.203Z,20.35
2022-09-14T05:14:44.641Z,20.80
2022-09-14T05:17:11.160Z,18.43
2022-09-14T05:19:37.584Z,19.38
2022-09-14T05:22:04.074Z,18.52
2022-09-14T05:24:30.548Z,18.70
2022-09-14T05:27:00.494Z,19.00
2022-09-14T05:29:29.591Z,18.80
2022-09-14T05:31:55.995Z,20.92
2022-09-14T05:34:22.459Z,19.75
2022-09-14T05:36:48.853Z,18.95
2022-09-14T05:39:18.693Z,20.13
2022-09-14T05:41:49.500Z,18.93
2022-09-14T05:44:15.902Z,18.83
2022-09-14T05:46:42.400Z,19.75
2022-09-14T05:49:08.841Z,20.83
2022-09-14T05:51:35.295Z,20.48
2022-09-14T05:54:01.718Z,22.73
2022-09-14T05:56:31.495Z,23.80
2022-09-14T05:58:59.276Z,20.75
2022-09-14T06:01:29.611Z,23.60
2022-09-14T06:03:58.583Z,23.95
2022-09-14T06:06:25.232Z,17.90
2022-09-14T06:08:54.079Z,21.55
2022-09-14T06:11:25.918Z,22.65
2022-09-14T06:13:54.373Z,18.30
2022-09-14T06:16:22.162Z,17.23
2022-09-14T06:18:49.493Z,19.13
2022-09-14T06:21:19.978Z,19.25
2022-09-14T06:23:47.937Z,19.45
2022-09-14T06:26:15.256Z,19.50
2022-09-14T06:28:42.488Z,18.88
2022-09-14T06:31:12.289Z,20.13
2022-09-14T06:33:42.542Z,19.95
2022-09-14T06:36:12.614Z,17.75
2022-09-14T06:38:40.510Z,17.63
2022-09-14T06:41:09.234Z,19.55
2022-09-14T06:43:38.666Z,19.07
2022-09-14T06:46:15.438Z,18.73
2022-09-14T06:48:48.416Z,17.75
2022-09-14T06:51:42.655Z,16.35
2022-09-14T06:54:11.972Z,16.15
2022-09-14T06:56:40.064Z,16.20
2022-09-14T06:59:08.228Z,16.05
2022-09-14T07:01:35.026Z,15.88
2022-09-14T07:04:01.981Z,15.38
2022-09-14T07:06:31.014Z,14.43
2022-09-14T07:08:57.624Z,14.70
2022-09-14T07:11:26.797Z,14.38
2022-09-14T07:13:58.931Z,14.65
2022-09-14T07:16:30.369Z,14.50
2022-09-14T07:18:59.105Z,15.48
2022-09-14T07:21:26.270Z,15.20
2022-09-14T07:23:53.472Z,14.55
2022-09-14T07:26:25.891Z,14.48
2022-09-14T07:28:58.469Z,13.98
2022-09-14T07:31:45.187Z,14.18
2022-09-14T07:34:13.056Z,14.17
2022-09-14T07:36:40.715Z,14.07
2022-09-14T07:39:09.764Z,12.98
2022-09-14T07:41:36.754Z,13.05
2022-09-14T07:44:06.294Z,14.00
2022-09-14T07:46:39.062Z,13.20
2022-09-14T07:49:07.337Z,12.48
2022-09-14T07:51:35.082Z,13.05
2022-09-14T07:54:01.850Z,13.05
2022-09-14T07:56:28.542Z,13.13
2022-09-14T07:59:11.441Z,11.50
2022-09-14T08:01:44.957Z,11.15
2022-09-14T08:04:11.415Z,11.45
2022-09-14T08:06:37.899Z,10.35
2022-09-14T08:09:08.875Z,10.30
2022-09-14T08:11:35.810Z,9.73
2022-09-14T08:14:09.679Z,10.30
2022-09-14T08:16:38.521Z,9.98
2022-09-14T08:19:07.726Z,9.35
2022-09-14T08:21:35.606Z,9.15
2022-09-14T08:24:04.200Z,10.40
2022-09-14T08:26:31.344Z,8.70
2022-09-14T08:29:00.468Z,9.18
2022-09-14T08:31:28.662Z,8.70
2022-09-14T08:33:57.999Z,8.98
2022-09-14T08:36:26.412Z,7.83
2022-09-14T08:38:52.810Z,9.35
2022-09-14T08:41:28.570Z,8.55
2022-09-14T08:43:59.729Z,8.15
2022-09-14T08:46:26.724Z,8.85
2022-09-14T08:48:53.686Z,8.23
2022-09-14T08:51:20.389Z,7.65
2022-09-14T08:53:52.478Z,7.13
2022-09-14T08:56:24.503Z,7.72
2022-09-14T08:59:33.172Z,6.15
2022-09-14T09:02:21.491Z,6.47
2022-09-14T09:04:55.568Z,5.55
2022-09-14T09:07:32.889Z,4.85
2022-09-14T09:09:59.710Z,5.20
2022-09-14T09:12:42.059Z,4.47
2022-09-14T09:15:26.987Z,4.60
2022-09-14T09:18:01.406Z,4.18
2022-09-14T09:20:35.856Z,4.35
2022-09-14T09:23:14.773Z,4.18
2022-09-14T09:26:12.172Z,4.38
2022-09-14T09:28:46.046Z,4.00
2022-09-14T09:31:15.116Z,3.58
2022-09-14T09:33:42.371Z,3.60
2022-09-14T09:36:12.885Z,3.72
2022-09-14T09:38:39.323Z,3.55
2022-09-14T09:41:18.011Z,3.47
2022-09-14T09:44:11.595Z,3.50
2022-09-14T09:46:47.231Z,3.00
2022-09-14T09:49:30.227Z,2.90
2022-09-14T09:52:06.463Z,3.45
2022-09-14T09:54:33.279Z,3.10
2022-09-14T09:57:03.482Z,3.33
2022-09-14T09:59:39.605Z,3.50
2022-09-14T10:02:28.686Z,3.90
2022-09-14T10:05:02.320Z,3.97
2022-09-14T10:07:31.680Z,3.00
2022-09-14T10:10:02.533Z,3.25
2022-09-14T10:12:29.941Z,3.45
2022-09-14T10:15:27.823Z,2.95
2022-09-14T10:18:04.204Z,3.78
2022-09-14T10:20:30.965Z,2.93
2022-09-14T10:23:18.775Z,3.67
2022-09-14T10:25:45.909Z,3.05
2022-09-14T10:28:29.123Z,2.63
2022-09-14T10:31:01.351Z,2.95
2022-09-14T10:33:29.507Z,3.00
2022-09-14T10:36:37.074Z,2.80
2022-09-14T10:39:11.054Z,2.95
2022-09-14T10:41:51.595Z,3.10
2022-09-14T10:44:57.307Z,2.97
2022-09-14T10:47:44.880Z,2.90
2022-09-14T10:50:33.427Z,3.10
2022-09-14T10:53:09.007Z,3.10
2022-09-14T10:56:02.758Z,2.92
2022-09-14T10:58:44.346Z,3.22
2022-09-14T11:01:32.152Z,2.97
2022-09-14T11:04:04.346Z,2.95
2022-09-14T11:06:39.195Z,2.72
2022-09-14T11:09:46.117Z,2.58
2022-09-14T11:12:24.191Z,2.40
2022-09-14T11:15:14.236Z,2.20
2022-09-14T11:18:15.529Z,2.28
2022-09-14T11:20:50.767Z,1.80
2022-09-14T11:23:28.739Z,2.30
2022-09-14T11:26:07.870Z,2.17
2022-09-14T11:28:41.191Z,2.27
2022-09-14T11:31:15.041Z,2.45
2022-09-14T11:33:50.934Z,2.22
2022-09-14T11:36:20.917Z,2.60
2022-09-14T11:39:01.388Z,2.63
2022-09-14T11:41:49.829Z,2.50
2022-09-14T11:44:21.651Z,2.45
2022-09-14T11:47:21.831Z,2.95
2022-09-14T11:50:28.296Z,2.80
2022-09-14T11:53:12.416Z,2.78
2022-09-14T11:55:44.372Z,2.37
2022-09-14T11:58:20.412Z,2.92
2022-09-14T12:01:25.914Z,2.28
2022-09-14T12:04:01.094Z,3.00
2022-09-14T12:06:30.322Z,2.58
2022-09-14T12:09:22.722Z,2.47
2022-09-14T12:11:54.134Z,2.03
2022-09-14T12:14:27.380Z,2.20
2022-09-14T12:17:17.586Z,2.55
2022-09-14T12:20:24.130Z,1.80
2022-09-14T12:22:50.678Z,1.70
2022-09-14T12:25:23.107Z,2.58
2022-09-14T12:27:50.538Z,2.38
2022-09-14T12:30:40.885Z,2.67
2022-09-14T12:33:33.538Z,2.58
2022-09-14T12:36:04.603Z,2.50
2022-09-14T12:38:31.024Z,2.70
2022-09-14T12:41:02.599Z,2.47
2022-09-14T12:43:35.044Z,2.03
2022-09-14T12:46:13.655Z,2.28
2022-09-14T12:48:49.396Z,2.30
2022-09-14T12:51:21.826Z,2.75
2022-09-14T12:54:04.635Z,2.75
2022-09-14T12:56:37.113Z,3.10
2022-09-14T12:59:19.115Z,2.45
2022-09-14T13:02:00.818Z,3.00
2022-09-14T13:04:33.823Z,2.83
2022-09-14T13:07:02.801Z,2.22
2022-09-14T13:09:31.845Z,2.85
2022-09-14T13:12:05.694Z,3.20
2022-09-14T13:14:39.556Z,2.77
2022-09-14T13:17:13.392Z,3.22
2022-09-14T13:19:39.891Z,2.60
2022-09-14T13:22:18.988Z,2.75
2022-09-14T13:24:47.600Z,2.92
2022-09-14T13:27:26.632Z,2.70
2022-09-14T13:30:19.175Z,2.67
2022-09-14T13:32:49.825Z,2.38
2022-09-14T13:35:28.098Z,2.60
2022-09-14T13:37:55.095Z,2.83
2022-09-14T13:40:28.368Z,1.93
2022-09-14T13:42:55.911Z,2.72
2022-09-14T13:45:22.901Z,2.25
2022-09-14T13:47:50.188Z,2.00
2022-09-14T13:50:17.243Z,2.40
2022-09-14T13:53:01.258Z,1.80
2022-09-14T13:55:43.359Z,2.50
2022-09-14T13:58:09.715Z,2.78
2022-09-14T14:00:59.962Z,2.40
2022-09-14T14:03:38.730Z,2.90
2022-09-14T14:06:22.771Z,2.70
2022-09-14T14:09:05.299Z,3.30
2022-09-14T14:11:52.306Z,2.38
2022-09-14T14:14:30.195Z,2.58
2022-09-14T14:17:22.205Z,2.70
2022-09-14T14:19:54.338Z,2.60
2022-09-14T14:22:28.815Z,2.80
2022-09-14T14:25:12.693Z,2.70
2022-09-14T14:27:46.168Z,3.13
2022-09-14T14:30:18.928Z,3.17
2022-09-14T14:32:56.010Z,3.60
2022-09-14T14:35:25.451Z,2.97
2022-09-14T14:37:52.422Z,3.35
2022-09-14T14:40:19.839Z,3.20
2022-09-14T14:42:47.283Z,3.47
2022-09-14T14:45:19.225Z,3.30
2022-09-14T14:47:47.302Z,3.67
2022-09-14T14:50:19.529Z,3.70
2022-09-14T14:52:46.006Z,3.75
2022-09-14T14:55:12.552Z,4.47
2022-09-14T14:57:38.966Z,3.27
2022-09-14T15:00:13.024Z,3.13
2022-09-14T15:02:39.445Z,3.95
2022-09-14T15:05:06.523Z,3.70
2022-09-14T15:07:35.933Z,3.83
2022-09-14T15:10:05.061Z,3.70
2022-09-14T15:12:32.821Z,3.95
2022-09-14T15:14:59.817Z,3.55
2022-09-14T15:17:26.293Z,4.13
2022-09-14T15:19:52.735Z,4.00
2022-09-14T15:22:19.533Z,4.20
2022-09-14T15:24:45.942Z,3.60
2022-09-14T15:27:12.415Z,3.60
2022-09-14T15:29:39.248Z,3.40
2022-09-14T15:32:05.711Z,3.35
2022-09-14T15:34:32.171Z,3.30
2022-09-14T15:36:58.986Z,3.38
2022-09-14T15:39:27.834Z,2.45
2022-09-14T15:41:55.095Z,2.72
2022-09-14T15:44:21.995Z,2.70
2022-09-14T15:46:49.562Z,2.60
2022-09-14T15:49:26.204Z,2.08
2022-09-14T15:51:55.380Z,1.70
2022-09-14T15:54:23.249Z,1.92
2022-09-14T15:56:55.680Z,1.38
2022-09-14T15:59:23.024Z,1.83
2022-09-14T16:01:49.791Z,2.05
2022-09-14T16:04:16.415Z,1.67
2022-09-14T16:06:42.867Z,2.17
2022-09-14T16:09:11.331Z,2.05
2022-09-14T16:11:39.156Z,2.13
2022-09-14T16:14:07.348Z,2.15
2022-09-14T16:16:35.301Z,1.80
2022-09-14T16:19:09.896Z,2.53
2022-09-14T16:21:37.328Z,2.22
2022-09-14T16:24:06.013Z,2.10
2022-09-14T16:26:37.354Z,2.03
2022-09-14T16:29:06.332Z,1.77
2022-09-14T16:31:37.339Z,1.80
2022-09-14T16:34:06.641Z,2.50
2022-09-14T16:36:37.117Z,1.73
2022-09-14T16:39:07.088Z,1.75
2022-09-14T16:41:33.778Z,2.10
2022-09-14T16:44:02.550Z,1.90
2022-09-14T16:46:31.429Z,1.40
2022-09-14T16:49:01.276Z,1.50
2022-09-14T16:51:29.803Z,2.15
2022-09-14T16:53:58.391Z,1.85
2022-09-14T16:56:28.515Z,6.30
2022-09-14T16:58:56.371Z,2.60
2022-09-14T17:01:31.858Z,2.43
2022-09-14T17:04:05.287Z,2.00
2022-09-14T17:06:32.844Z,1.80
2022-09-14T17:09:01.968Z,1.40
2022-09-14T17:11:30.442Z,1.70
2022-09-14T17:13:57.351Z,1.17
2022-09-14T17:16:26.055Z,1.50
2022-09-14T17:18:56.772Z,1.45
2022-09-14T17:21:26.580Z,1.23
2022-09-14T17:23:53.083Z,1.40
2022-09-14T17:26:21.609Z,1.60
2022-09-14T17:28:49.982Z,1.20
2022-09-14T17:31:19.890Z,1.20
2022-09-14T17:33:47.394Z,1.30
2022-09-14T17:36:15.596Z,1.95
2022-09-14T17:38:43.639Z,1.63
2022-09-14T17:41:13.136Z,1.50
2022-09-14T17:43:40.428Z,1.60
2022-09-14T17:46:10.112Z,1.73
2022-09-14T17:48:38.697Z,1.35
2022-09-14T17:51:15.830Z,1.47
2022-09-14T17:53:44.404Z,1.58
2022-09-14T17:56:13.257Z,2.55
2022-09-14T17:58:40.723Z,1.65
2022-09-14T18:01:15.592Z,2.00
2022-09-14T18:03:44.377Z,2.23
2022-09-14T18:06:12.552Z,3.10
2022-09-14T18:08:40.061Z,2.30
2022-09-14T18:11:15.816Z,2.20
2022-09-14T18:13:44.220Z,2.08
2022-09-14T18:16:11.676Z,1.87
2022-09-14T18:18:38.462Z,2.13
2022-09-14T18:21:05.221Z,2.40
2022-09-14T18:23:32.246Z,2.20
2022-09-14T18:26:01.139Z,1.80
2022-09-14T18:28:27.646Z,1.53
2022-09-14T18:31:07.144Z,1.70
2022-09-14T18:33:34.010Z,1.75
2022-09-14T18:36:00.400Z,1.42
2022-09-14T18:38:27.531Z,1.70
2022-09-14T18:40:53.944Z,1.20
2022-09-14T18:43:20.395Z,1.48
2022-09-14T18:45:47.391Z,1.50
2022-09-14T18:48:14.395Z,1.13
2022-09-14T18:50:42.326Z,1.45
2022-09-14T18:53:09.019Z,0.97
2022-09-14T18:55:35.495Z,1.27
2022-09-14T18:58:02.301Z,1.20
2022-09-14T19:00:28.835Z,1.02
2022-09-14T19:02:56.739Z,1.17
2022-09-14T19:05:24.635Z,1.20
2022-09-14T19:07:51.376Z,1.10
2022-09-14T19:10:17.922Z,1.70
2022-09-14T19:12:44.634Z,1.30
2022-09-14T19:15:12.244Z,1.23
2022-09-14T19:17:39.027Z,1.13
2022-09-14T19:20:06.981Z,1.10
2022-09-14T19:22:33.982Z,1.25
2022-09-14T19:25:00.371Z,1.08
2022-09-14T19:27:27.264Z,1.10
2022-09-14T19:29:53.798Z,1.33
2022-09-14T19:32:20.369Z,1.10
2022-09-14T19:34:46.790Z,1.17
2022-09-14T19:37:13.209Z,1.08
2022-09-14T19:39:39.675Z,1.63
2022-09-14T19:42:06.083Z,1.47
2022-09-14T19:44:32.534Z,1.42
2022-09-14T19:46:58.938Z,1.67
2022-09-14T19:49:25.829Z,1.58
2022-09-14T19:51:53.005Z,1.60
2022-09-14T19:54:19.646Z,1.37
2022-09-14T19:56:46.610Z,1.23
2022-09-14T19:59:13.465Z,1.67
2022-09-14T20:01:40.521Z,1.05
2022-09-14T20:04:08.010Z,1.02
2022-09-14T20:06:42.138Z,1.13
2022-09-14T20:09:11.579Z,1.35
2022-09-14T20:11:40.456Z,1.38
2022-09-14T20:14:09.723Z,1.50
2022-09-14T20:16:39.360Z,1.20
2022-09-14T20:19:11.325Z,1.47
2022-09-14T20:21:38.598Z,1.25
2022-09-14T20:24:22.016Z,1.58
2022-09-14T20:26:50.363Z,1.20
2022-09-14T20:29:18.597Z,1.25
2022-09-14T20:31:45.765Z,1.17
2022-09-14T20:34:13.096Z,1.25
2022-09-14T20:36:39.793Z,1.05
2022-09-14T20:39:06.833Z,1.48
2022-09-14T20:41:34.961Z,1.58
2022-09-14T20:44:01.770Z,1.13
2022-09-14T20:46:40.267Z,1.20
2022-09-14T20:49:11.263Z,1.35
2022-09-14T20:51:38.341Z,1.08
2022-09-14T20:54:06.045Z,1.67
2022-09-14T20:56:34.288Z,1.27
2022-09-14T20:59:03.279Z,1.55
2022-09-14T21:01:32.612Z,1.30
2022-09-14T21:04:09.061Z,1.80
2022-09-14T21:06:37.673Z,1.38
2022-09-14T21:09:05.684Z,1.00
2022-09-14T21:11:32.223Z,0.88
2022-09-14T21:13:58.684Z,1.30
2022-09-14T21:16:33.738Z,1.17
2022-09-14T21:19:02.980Z,1.50
2022-09-14T21:21:30.457Z,1.53
2022-09-14T21:23:58.527Z,1.45
2022-09-14T21:26:26.271Z,1.08
2022-09-14T21:28:58.322Z,1.23
2022-09-14T21:31:28.708Z,1.50
2022-09-14T21:33:58.914Z,1.43
2022-09-14T21:36:31.880Z,1.65
2022-09-14T21:39:00.083Z,1.50
2022-09-14T21:41:29.224Z,1.33
2022-09-14T21:43:57.294Z,1.40
2022-09-14T21:46:25.106Z,1.80
2022-09-14T21:48:52.368Z,1.40
2022-09-14T21:51:20.697Z,1.40
2022-09-14T21:53:54.503Z,1.15
2022-09-14T21:56:23.388Z,1.40
2022-09-14T21:58:56.727Z,1.43
2022-09-14T22:01:23.949Z,1.85
2022-09-14T22:03:51.964Z,1.92
2022-09-14T22:06:20.120Z,1.70
2022-09-14T22:08:46.930Z,1.55
2022-09-14T22:11:20.039Z,1.63
2022-09-14T22:13:56.623Z,1.05
2022-09-14T22:16:26.345Z,1.70
2022-09-14T22:18:55.486Z,0.80
2022-09-14T22:21:24.078Z,1.42
2022-09-14T22:23:56.495Z,1.60
2022-09-14T22:26:23.483Z,1.48
2022-09-14T22:28:51.485Z,1.25
2022-09-14T22:31:20.197Z,1.30
2022-09-14T22:33:47.077Z,1.52
2022-09-14T22:36:14.922Z,1.93
2022-09-14T22:38:41.581Z,1.98
2022-09-14T22:41:10.622Z,1.40
2022-09-14T22:43:38.219Z,1.65
2022-09-14T22:46:05.932Z,1.80
2022-09-14T22:48:32.704Z,1.30
2022-09-14T22:50:59.955Z,1.13
2022-09-14T22:53:28.169Z,1.30
2022-09-14T22:55:55.139Z,1.15
2022-09-14T22:58:24.135Z,1.30
2022-09-14T23:00:51.147Z,1.43
2022-09-14T23:03:18.382Z,2.28
2022-09-14T23:05:50.217Z,1.60
2022-09-14T23:08:17.015Z,1.27
2022-09-14T23:10:43.411Z,1.70
2022-09-14T23:13:10.120Z,1.93
2022-09-14T23:15:40.004Z,1.73
2022-09-14T23:18:07.441Z,2.03
2022-09-14T23:20:42.160Z,2.08
2022-09-14T23:23:09.716Z,2.00
2022-09-14T23:25:38.244Z,1.83
2022-09-14T23:28:06.262Z,2.08
2022-09-14T23:30:33.782Z,1.88
2022-09-14T23:33:00.826Z,1.60
2022-09-14T23:35:28.156Z,1.90
2022-09-14T23:37:55.099Z,1.93
2022-09-14T23:40:22.268Z,1.80
2022-09-14T23:42:48.902Z,2.53
2022-09-14T23:45:15.912Z,2.10
2022-09-14T23:47:42.341Z,2.15
2022-09-14T23:50:09.311Z,2.70
2022-09-14T23:52:36.260Z,1.90
2022-09-14T23:55:02.760Z,2.28
2022-09-14T23:57:29.239Z,2.58
2022-09-14T23:59:55.643Z,2.38
